createdAt,value
2019-04-29T00:02:35.072Z,4.93
2019-04-29T00:05:07.886Z,5.53
2019-04-29T00:07:39.562Z,4.93
2019-04-29T00:10:13.402Z,5.00
2019-04-29T00:12:44.906Z,5.17
2019-04-29T00:15:34.798Z,4.83
2019-04-29T00:18:11.314Z,4.70
2019-04-29T00:20:51.952Z,4.50
2019-04-29T00:23:23.562Z,4.77
2019-04-29T00:25:55.074Z,4.60
2019-04-29T00:28:26.616Z,4.60
2019-04-29T00:30:58.151Z,5.00
2019-04-29T00:33:29.754Z,4.30
2019-04-29T00:36:01.282Z,4.53
2019-04-29T00:38:57.602Z,4.20
2019-04-29T00:41:54.742Z,4.80
2019-04-29T00:44:26.299Z,4.17
2019-04-29T00:46:57.840Z,4.70
2019-04-29T00:49:29.430Z,4.87
2019-04-29T00:52:01.058Z,4.47
2019-04-29T00:54:47.705Z,4.60
2019-04-29T00:57:19.154Z,4.60
2019-04-29T00:59:50.732Z,4.20
2019-04-29T01:02:22.500Z,4.77
2019-04-29T01:04:54.120Z,4.17
2019-04-29T01:07:25.612Z,5.30
2019-04-29T01:09:57.109Z,4.80
2019-04-29T01:12:28.634Z,4.50
2019-04-29T01:15:00.589Z,4.00
2019-04-29T01:17:32.160Z,4.57
2019-04-29T01:20:03.682Z,4.23
2019-04-29T01:22:35.245Z,4.07
2019-04-29T01:25:06.800Z,4.33
2019-04-29T01:27:43.738Z,3.93
2019-04-29T01:31:05.534Z,4.33
2019-04-29T01:33:37.196Z,4.63
2019-04-29T01:36:27.746Z,4.77
2019-04-29T01:39:01.653Z,4.47
2019-04-29T01:41:41.519Z,4.47
2019-04-29T01:44:13.033Z,4.47
2019-04-29T01:46:44.496Z,4.97
2019-04-29T01:49:16.034Z,4.70
2019-04-29T01:51:47.681Z,5.40
2019-04-29T01:54:20.259Z,4.67
2019-04-29T01:56:51.790Z,4.00
2019-04-29T01:59:23.291Z,4.83
2019-04-29T02:01:54.783Z,4.83
2019-04-29T02:04:26.312Z,4.80
2019-04-29T02:06:57.878Z,4.57
2019-04-29T02:09:44.195Z,4.73
2019-04-29T02:12:15.717Z,5.30
2019-04-29T02:14:47.193Z,4.73
2019-04-29T02:17:19.770Z,5.27
2019-04-29T02:19:51.391Z,5.20
2019-04-29T02:22:33.142Z,5.50
2019-04-29T02:25:11.045Z,5.43
2019-04-29T02:27:42.502Z,5.20
2019-04-29T02:30:28.763Z,5.63
2019-04-29T02:33:00.319Z,5.47
2019-04-29T02:35:31.858Z,5.77
2019-04-29T02:38:46.167Z,5.40
2019-04-29T02:41:28.923Z,6.43
2019-04-29T02:44:02.080Z,6.80
2019-04-29T02:46:33.578Z,6.43
2019-04-29T02:49:05.146Z,6.60
2019-04-29T02:51:52.527Z,6.53
2019-04-29T02:54:26.416Z,6.27
2019-04-29T02:57:03.472Z,6.10
2019-04-29T02:59:39.365Z,7.23
2019-04-29T03:02:36.034Z,6.90
2019-04-29T03:05:10.059Z,9.07
2019-04-29T03:07:41.743Z,7.20
2019-04-29T03:10:14.562Z,7.73
2019-04-29T03:12:46.172Z,7.73
2019-04-29T03:15:29.499Z,8.50
2019-04-29T03:18:01.327Z,9.13
2019-04-29T03:21:07.158Z,10.90
2019-04-29T03:23:38.674Z,9.40
2019-04-29T03:26:10.200Z,9.33
2019-04-29T03:28:41.687Z,11.40
2019-04-29T03:31:13.263Z,10.10
2019-04-29T03:33:44.756Z,12.10
2019-04-29T03:36:16.483Z,11.23
2019-04-29T03:38:47.987Z,10.37
2019-04-29T03:41:19.647Z,11.53
2019-04-29T03:43:51.147Z,10.50
2019-04-29T03:46:22.669Z,12.40
2019-04-29T03:48:54.129Z,12.20
2019-04-29T03:51:25.712Z,12.70
2019-04-29T03:53:57.249Z,10.83
2019-04-29T03:56:29.125Z,11.47
2019-04-29T03:59:00.670Z,12.63
2019-04-29T04:01:37.613Z,12.37
2019-04-29T04:04:15.101Z,12.17
2019-04-29T04:06:51.398Z,11.93
2019-04-29T04:09:25.603Z,11.63
2019-04-29T04:11:57.159Z,12.17
2019-04-29T04:14:28.653Z,11.23
2019-04-29T04:17:22.653Z,13.47
2019-04-29T04:19:54.590Z,12.20
2019-04-29T04:22:26.099Z,12.73
2019-04-29T04:24:57.569Z,12.63
2019-04-29T04:27:29.089Z,13.97
2019-04-29T04:30:00.599Z,11.50
2019-04-29T04:32:32.099Z,13.30
2019-04-29T04:35:03.639Z,13.37
2019-04-29T04:37:35.134Z,12.33
2019-04-29T04:40:08.057Z,11.87
2019-04-29T04:42:39.669Z,15.30
2019-04-29T04:45:11.174Z,12.30
2019-04-29T04:47:42.740Z,13.33
2019-04-29T04:50:14.398Z,13.77
2019-04-29T04:52:45.856Z,13.53
2019-04-29T04:55:18.050Z,13.57
2019-04-29T04:57:49.614Z,14.23
2019-04-29T05:00:23.056Z,14.20
2019-04-29T05:02:54.566Z,14.27
2019-04-29T05:05:26.037Z,13.07
2019-04-29T05:07:57.494Z,14.53
2019-04-29T05:10:28.984Z,13.40
2019-04-29T05:13:00.528Z,12.97
2019-04-29T05:15:32.006Z,11.20
2019-04-29T05:18:03.670Z,14.13
2019-04-29T05:20:35.144Z,14.50
2019-04-29T05:23:06.623Z,13.43
2019-04-29T05:25:38.102Z,12.03
2019-04-29T05:28:09.654Z,13.23
2019-04-29T05:30:41.212Z,12.50
2019-04-29T05:33:12.671Z,13.70
2019-04-29T05:35:56.561Z,13.37
2019-04-29T05:38:42.046Z,13.43
2019-04-29T05:41:13.982Z,14.10
2019-04-29T05:44:04.372Z,13.07
2019-04-29T05:46:46.365Z,13.57
2019-04-29T05:49:22.000Z,13.27
2019-04-29T05:52:15.166Z,14.43
2019-04-29T05:54:46.662Z,14.63
2019-04-29T05:57:20.329Z,13.30
2019-04-29T05:59:51.434Z,13.03
2019-04-29T06:02:24.097Z,12.80
2019-04-29T06:04:56.133Z,12.60
2019-04-29T06:07:27.650Z,14.93
2019-04-29T06:10:01.508Z,15.27
2019-04-29T06:12:32.991Z,14.20
2019-04-29T06:15:04.803Z,13.27
2019-04-29T06:17:40.125Z,12.00
2019-04-29T06:20:13.036Z,15.03
2019-04-29T06:22:43.503Z,14.80
2019-04-29T06:25:15.183Z,13.47
2019-04-29T06:27:46.724Z,13.83
2019-04-29T06:30:18.414Z,12.40
2019-04-29T06:32:49.874Z,13.77
2019-04-29T06:35:21.497Z,15.70
2019-04-29T06:37:53.052Z,14.00
2019-04-29T06:40:24.638Z,12.80
2019-04-29T06:42:56.279Z,13.03
2019-04-29T06:45:27.798Z,14.33
2019-04-29T06:47:59.266Z,13.47
2019-04-29T06:50:31.098Z,12.93
2019-04-29T06:53:04.342Z,13.77
2019-04-29T06:55:35.944Z,14.50
2019-04-29T06:58:07.494Z,13.77
2019-04-29T07:00:39.146Z,14.97
2019-04-29T07:03:10.787Z,13.00
2019-04-29T07:05:42.305Z,13.60
2019-04-29T07:08:13.951Z,13.77
2019-04-29T07:10:45.460Z,12.13
2019-04-29T07:13:17.971Z,14.67
2019-04-29T07:15:50.259Z,13.83
2019-04-29T07:18:22.042Z,16.10
2019-04-29T07:20:53.580Z,14.63
2019-04-29T07:23:25.210Z,15.47
2019-04-29T07:25:56.678Z,14.50
2019-04-29T07:28:33.682Z,13.60
2019-04-29T07:31:05.247Z,13.73
2019-04-29T07:33:36.759Z,15.53
2019-04-29T07:36:12.641Z,14.80
2019-04-29T07:38:46.597Z,14.40
2019-04-29T07:41:19.112Z,11.73
2019-04-29T07:43:58.093Z,14.33
2019-04-29T07:46:55.535Z,15.37
2019-04-29T07:49:12.830Z,15.43
2019-04-29T07:51:45.905Z,14.93
2019-04-29T07:54:17.795Z,14.67
2019-04-29T07:56:49.365Z,15.17
2019-04-29T07:59:21.396Z,14.70
2019-04-29T08:01:55.710Z,14.73
2019-04-29T08:04:26.255Z,14.63
2019-04-29T08:06:58.420Z,15.43
2019-04-29T08:09:30.254Z,16.33
2019-04-29T08:12:02.015Z,15.10
2019-04-29T08:14:33.876Z,15.50
2019-04-29T08:17:07.711Z,15.27
2019-04-29T08:19:39.475Z,15.67
2019-04-29T08:22:11.121Z,14.87
2019-04-29T08:24:45.986Z,16.67
2019-04-29T08:27:15.982Z,16.47
2019-04-29T08:29:47.637Z,16.67
2019-04-29T08:32:19.113Z,18.70
2019-04-29T08:34:53.633Z,14.93
2019-04-29T08:37:25.035Z,14.93
2019-04-29T08:40:08.581Z,14.90
2019-04-29T08:42:37.321Z,16.60
2019-04-29T08:45:39.083Z,18.07
2019-04-29T08:48:09.017Z,15.57
2019-04-29T08:50:40.868Z,15.93
2019-04-29T08:53:24.063Z,16.30
2019-04-29T08:55:55.573Z,16.40
2019-04-29T08:58:27.088Z,16.00
2019-04-29T09:01:00.151Z,15.43
2019-04-29T09:03:39.980Z,16.63
2019-04-29T09:06:08.003Z,15.13
2019-04-29T09:08:54.179Z,16.00
2019-04-29T09:11:15.651Z,16.33
2019-04-29T09:13:47.166Z,16.37
2019-04-29T09:16:18.732Z,17.17
2019-04-29T09:18:50.277Z,15.00
2019-04-29T09:21:21.929Z,15.77
2019-04-29T09:23:53.514Z,16.90
2019-04-29T09:26:39.351Z,16.43
2019-04-29T09:29:28.782Z,15.00
2019-04-29T09:32:00.379Z,15.77
2019-04-29T09:34:31.965Z,14.33
2019-04-29T09:37:03.547Z,15.43
2019-04-29T09:39:43.480Z,14.30
2019-04-29T09:42:17.554Z,15.10
2019-04-29T09:45:10.399Z,16.73
2019-04-29T09:47:41.947Z,17.07
2019-04-29T09:50:15.717Z,15.63
2019-04-29T09:52:47.316Z,14.23
2019-04-29T09:55:20.424Z,15.40
2019-04-29T09:57:52.098Z,15.77
2019-04-29T10:00:46.050Z,15.33
2019-04-29T10:03:32.855Z,15.43
2019-04-29T10:06:18.267Z,15.67
2019-04-29T10:08:49.790Z,16.27
2019-04-29T10:11:21.327Z,13.13
2019-04-29T10:13:52.901Z,12.83
2019-04-29T10:16:44.115Z,13.50
2019-04-29T10:19:37.614Z,13.97
2019-04-29T10:22:09.082Z,13.63
2019-04-29T10:24:42.160Z,13.27
2019-04-29T10:27:13.919Z,12.03
2019-04-29T10:29:50.736Z,12.20
2019-04-29T10:32:21.300Z,16.30
2019-04-29T10:34:53.014Z,13.07
2019-04-29T10:37:31.495Z,12.33
2019-04-29T10:40:22.914Z,13.70
2019-04-29T10:43:17.216Z,12.43
2019-04-29T10:46:10.005Z,12.23
2019-04-29T10:48:53.890Z,11.80
2019-04-29T10:51:27.494Z,15.43
2019-04-29T10:54:01.358Z,12.83
2019-04-29T10:56:35.294Z,11.70
2019-04-29T10:59:09.222Z,12.50
2019-04-29T11:02:38.223Z,12.13
2019-04-29T11:05:44.665Z,12.17
2019-04-29T11:08:43.103Z,11.83
2019-04-29T11:11:23.017Z,12.73
2019-04-29T11:13:50.499Z,11.47
2019-04-29T11:16:22.831Z,10.67
2019-04-29T11:18:55.040Z,12.53
2019-04-29T11:21:29.377Z,13.77
2019-04-29T11:24:09.131Z,12.40
2019-04-29T11:27:13.411Z,13.20
2019-04-29T11:29:45.058Z,11.90
2019-04-29T11:32:24.936Z,10.87
2019-04-29T11:35:04.747Z,11.93
2019-04-29T11:37:36.398Z,12.47
2019-04-29T11:40:08.011Z,13.43
2019-04-29T11:42:41.717Z,11.07
2019-04-29T11:45:16.395Z,11.63
2019-04-29T11:47:48.087Z,13.57
2019-04-29T11:50:38.555Z,10.63
2019-04-29T11:53:11.624Z,11.93
2019-04-29T11:55:46.244Z,11.67
2019-04-29T11:58:24.736Z,10.30
2019-04-29T12:01:08.534Z,10.57
2019-04-29T12:03:40.398Z,11.67
2019-04-29T12:06:16.429Z,10.80
2019-04-29T12:08:48.039Z,9.77
2019-04-29T12:11:21.679Z,11.67
2019-04-29T12:14:04.736Z,10.63
2019-04-29T12:16:44.281Z,10.07
2019-04-29T12:19:27.741Z,8.83
2019-04-29T12:21:59.249Z,9.57
2019-04-29T12:24:30.937Z,9.50
2019-04-29T12:27:02.496Z,9.53
2019-04-29T12:29:34.125Z,9.40
2019-04-29T12:32:25.280Z,9.87
2019-04-29T12:35:06.910Z,9.80
2019-04-29T12:38:00.693Z,9.17
2019-04-29T12:40:55.113Z,9.20
2019-04-29T12:43:59.810Z,7.70
2019-04-29T12:46:37.731Z,7.30
2019-04-29T12:49:13.402Z,7.73
2019-04-29T12:51:42.901Z,8.17
2019-04-29T12:54:14.440Z,8.17
2019-04-29T12:56:49.463Z,9.20
2019-04-29T12:59:22.446Z,8.63
2019-04-29T13:02:19.718Z,8.53
2019-04-29T13:05:09.380Z,8.10
2019-04-29T13:08:01.383Z,7.60
2019-04-29T13:10:48.183Z,9.77
2019-04-29T13:13:21.798Z,8.27
2019-04-29T13:16:20.232Z,7.70
2019-04-29T13:19:14.467Z,9.17
2019-04-29T13:21:43.136Z,8.73
2019-04-29T13:24:23.777Z,8.43
2019-04-29T13:26:47.862Z,8.40
2019-04-29T13:31:52.673Z,7.93
2019-04-29T13:33:22.683Z,7.97
2019-04-29T13:34:33.049Z,7.63
2019-04-29T13:37:12.291Z,8.23
2019-04-29T13:39:40.222Z,8.88
2019-04-29T13:42:15.631Z,7.90
2019-04-29T13:45:04.670Z,7.97
2019-04-29T13:47:36.713Z,8.65
2019-04-29T13:50:20.130Z,8.85
2019-04-29T13:52:48.078Z,8.38
2019-04-29T13:55:46.165Z,8.55
2019-04-29T13:57:54.959Z,8.15
2019-04-29T14:00:55.650Z,9.25
2019-04-29T14:03:32.066Z,8.68
2019-04-29T14:06:04.723Z,7.58
2019-04-29T14:08:36.839Z,9.18
2019-04-29T14:11:10.398Z,8.55
2019-04-29T14:13:43.255Z,8.30
2019-04-29T14:16:20.721Z,8.05
2019-04-29T14:18:50.530Z,8.88
2019-04-29T14:21:25.613Z,8.68
2019-04-29T14:23:56.572Z,9.25
2019-04-29T14:26:29.592Z,8.90
2019-04-29T14:29:01.776Z,8.38
2019-04-29T14:31:34.156Z,8.40
2019-04-29T14:34:20.498Z,8.90
2019-04-29T14:36:57.402Z,8.23
2019-04-29T14:39:36.541Z,8.18
2019-04-29T14:42:04.434Z,7.65
2019-04-29T14:44:55.342Z,7.10
2019-04-29T14:47:37.738Z,8.13
2019-04-29T14:50:10.592Z,8.20
2019-04-29T14:52:44.740Z,7.33
2019-04-29T14:55:19.861Z,8.38
2019-04-29T14:57:51.312Z,8.33
2019-04-29T15:00:35.976Z,8.68
2019-04-29T15:03:08.056Z,7.62
2019-04-29T15:05:41.955Z,7.22
2019-04-29T15:08:14.210Z,8.08
2019-04-29T15:10:47.881Z,7.33
2019-04-29T15:13:21.847Z,8.48
2019-04-29T15:16:14.062Z,8.45
2019-04-29T15:18:54.934Z,8.00
2019-04-29T15:21:45.602Z,8.05
2019-04-29T15:24:17.762Z,8.13
2019-04-29T15:26:49.934Z,7.85
2019-04-29T15:29:22.043Z,8.40
2019-04-29T15:31:54.148Z,7.35
2019-04-29T15:34:26.198Z,7.70
2019-04-29T15:36:58.274Z,9.10
2019-04-29T15:39:30.416Z,7.85
2019-04-29T15:42:06.971Z,7.50
2019-04-29T15:44:36.366Z,8.33
2019-04-29T15:47:08.609Z,7.70
2019-04-29T15:49:41.287Z,7.80
2019-04-29T15:52:15.973Z,7.55
2019-04-29T15:54:51.027Z,7.40
2019-04-29T15:57:21.044Z,7.65
2019-04-29T15:59:59.692Z,7.47
2019-04-29T16:02:28.484Z,7.75
2019-04-29T16:05:26.022Z,7.53
2019-04-29T16:08:16.198Z,8.43
2019-04-29T16:11:06.214Z,8.68
2019-04-29T16:13:38.811Z,8.58
2019-04-29T16:16:11.360Z,7.83
2019-04-29T16:18:43.971Z,8.10
2019-04-29T16:21:16.500Z,7.42
2019-04-29T16:23:48.988Z,8.20
2019-04-29T16:26:24.951Z,7.17
2019-04-29T16:28:55.650Z,8.00
2019-04-29T16:31:28.042Z,8.00
2019-04-29T16:34:00.551Z,7.65
2019-04-29T16:36:33.170Z,7.65
2019-04-29T16:39:06.460Z,8.60
2019-04-29T16:42:17.454Z,8.13
2019-04-29T16:44:49.882Z,8.48
2019-04-29T16:47:23.172Z,7.97
2019-04-29T16:49:57.752Z,7.92
2019-04-29T16:52:32.027Z,9.70
2019-04-29T16:55:05.953Z,8.13
2019-04-29T16:57:38.339Z,8.78
2019-04-29T17:00:13.676Z,8.50
2019-04-29T17:02:44.760Z,7.97
2019-04-29T17:05:17.235Z,8.75
2019-04-29T17:07:49.402Z,9.10
2019-04-29T17:10:39.205Z,8.78
2019-04-29T17:13:15.061Z,8.00
2019-04-29T17:15:52.223Z,7.85
2019-04-29T17:18:18.969Z,8.63
2019-04-29T17:20:51.561Z,7.70
2019-04-29T17:23:24.783Z,7.42
2019-04-29T17:25:56.946Z,7.87
2019-04-29T17:28:34.623Z,8.50
2019-04-29T17:31:32.410Z,8.68
2019-04-29T17:34:44.090Z,8.15
2019-04-29T17:36:56.182Z,8.60
2019-04-29T17:39:27.715Z,8.33
2019-04-29T17:41:59.202Z,9.20
2019-04-29T17:44:44.078Z,8.07
2019-04-29T17:47:48.948Z,7.80
2019-04-29T17:50:46.803Z,8.60
2019-04-29T17:53:25.356Z,9.30
2019-04-29T17:56:12.522Z,8.30
2019-04-29T17:58:51.272Z,9.30
2019-04-29T18:01:42.850Z,7.30
2019-04-29T18:04:36.118Z,8.17
2019-04-29T18:07:29.396Z,7.83
2019-04-29T18:10:24.348Z,7.97
2019-04-29T18:12:52.866Z,8.37
2019-04-29T18:15:26.557Z,11.37
2019-04-29T18:18:00.373Z,7.60
2019-04-29T18:21:03.098Z,8.80
2019-04-29T18:23:59.365Z,7.70
2019-04-29T18:26:38.481Z,8.90
2019-04-29T18:29:10.154Z,8.10
2019-04-29T18:31:44.420Z,8.77
2019-04-29T18:34:15.372Z,8.40
2019-04-29T18:36:46.936Z,7.53
2019-04-29T18:39:25.088Z,8.33
2019-04-29T18:41:54.796Z,8.47
2019-04-29T18:44:26.375Z,7.40
2019-04-29T18:46:58.019Z,7.80
2019-04-29T18:49:29.890Z,8.20
2019-04-29T18:52:02.256Z,7.20
2019-04-29T18:54:35.766Z,6.97
2019-04-29T18:57:07.779Z,7.57
2019-04-29T18:59:41.882Z,7.67
2019-04-29T19:02:12.880Z,9.53
2019-04-29T19:04:53.480Z,9.93
2019-04-29T19:07:27.402Z,8.03
2019-04-29T19:09:59.614Z,8.23
2019-04-29T19:12:31.352Z,8.33
2019-04-29T19:15:04.902Z,7.27
2019-04-29T19:17:39.824Z,7.70
2019-04-29T19:20:13.017Z,7.23
2019-04-29T19:22:44.117Z,6.93
2019-04-29T19:25:16.852Z,7.37
2019-04-29T19:27:48.568Z,6.57
2019-04-29T19:30:21.658Z,7.27
2019-04-29T19:33:00.121Z,9.73
2019-04-29T19:35:29.518Z,8.00
2019-04-29T19:38:02.340Z,7.33
2019-04-29T19:40:38.923Z,7.33
2019-04-29T19:43:10.361Z,7.43
2019-04-29T19:45:44.761Z,7.87
2019-04-29T19:48:16.107Z,7.10
2019-04-29T19:51:13.004Z,6.63
2019-04-29T19:53:22.903Z,6.17
2019-04-29T19:56:03.561Z,6.03
2019-04-29T19:58:29.877Z,7.17
2019-04-29T20:01:13.880Z,6.57
2019-04-29T20:03:50.573Z,6.83
2019-04-29T20:06:27.315Z,5.63
2019-04-29T20:09:00.911Z,6.93
2019-04-29T20:11:33.824Z,5.60
2019-04-29T20:14:06.398Z,6.37
2019-04-29T20:16:57.250Z,6.10
2019-04-29T20:19:41.404Z,6.20
2019-04-29T20:22:15.394Z,6.37
2019-04-29T20:24:49.630Z,6.53
2019-04-29T20:27:20.834Z,6.70
2019-04-29T20:29:55.779Z,6.53
2019-04-29T20:32:31.763Z,6.50
2019-04-29T20:35:07.528Z,5.83
2019-04-29T20:37:33.927Z,6.17
2019-04-29T20:40:06.494Z,6.20
2019-04-29T20:42:40.470Z,5.10
2019-04-29T20:45:12.349Z,6.17
2019-04-29T20:47:45.547Z,6.03
2019-04-29T20:50:17.660Z,6.90
2019-04-29T20:53:10.953Z,5.93
2019-04-29T20:55:42.890Z,5.93
2019-04-29T20:58:15.630Z,5.93
2019-04-29T21:00:47.459Z,5.63
2019-04-29T21:03:27.840Z,5.37
2019-04-29T21:05:54.983Z,6.20
2019-04-29T21:08:25.941Z,5.00
2019-04-29T21:10:59.688Z,7.00
2019-04-29T21:14:02.549Z,5.70
2019-04-29T21:16:38.708Z,5.20
2019-04-29T21:19:11.065Z,5.73
2019-04-29T21:21:45.459Z,5.37
2019-04-29T21:24:18.977Z,5.53
2019-04-29T21:26:55.062Z,5.23
2019-04-29T21:29:25.939Z,5.63
2019-04-29T21:32:01.538Z,5.50
2019-04-29T21:34:38.774Z,5.43
2019-04-29T21:37:23.454Z,5.57
2019-04-29T21:40:14.690Z,5.27
2019-04-29T21:42:55.395Z,5.00
2019-04-29T21:45:28.123Z,5.77
2019-04-29T21:47:59.719Z,5.67
2019-04-29T21:50:37.091Z,5.57
2019-04-29T21:53:05.070Z,5.97
2019-04-29T21:55:36.803Z,5.67
2019-04-29T21:58:08.272Z,6.10
2019-04-29T22:00:39.936Z,6.70
2019-04-29T22:03:13.045Z,6.47
2019-04-29T22:05:45.192Z,5.73
2019-04-29T22:08:20.771Z,5.63
2019-04-29T22:10:49.958Z,6.17
2019-04-29T22:13:21.529Z,5.97
2019-04-29T22:15:53.140Z,6.10
2019-04-29T22:18:25.810Z,6.23
2019-04-29T22:21:07.628Z,5.03
2019-04-29T22:23:38.035Z,4.87
2019-04-29T22:26:09.507Z,4.63
2019-04-29T22:28:40.975Z,5.57
2019-04-29T22:31:12.614Z,5.43
2019-04-29T22:33:46.079Z,6.10
